DLH29E LCLK-LKPR
Flight info
| Callsign | DLH29E |
|---|---|
| Flight time | 3h 25m |
| Altitude | 28000 |
| Route | PHA M31 GENOS DCT PEDER DCT EVENO UM601 EXELA UN127 BENEM/N0474F300 UN127 IMR UN128 LMO DCT EVIVI DCT OKANA DCT TONDO DCT BEGLA DCT NAVTI DCT BODAL DCT VLM |
| Aircraft | B722/M-SDFGHRWY/C |
Departure
| Time | 2026-05-07 20:51 |
|---|---|
| Airport | Larnaca International Airport (LCLK) |
Arrival
| Time | 2026-05-08 00:16 |
|---|---|
| Airport | Václav Havel Airport Prague (LKPR) |
| Time | Latitude | Longitude | Altitude | Speed | Heading |
|---|---|---|---|---|---|
| 2026-05-07 20:47 | 34.87001 | 33.61116 | 26 ft | 0 kts | 225° |
| 2026-05-07 20:51 | 34.86959 | 33.61066 | 2006 ft | 226 kts | 225° |
| 2026-05-07 20:51 | 34.87000 | 33.61116 | 24 ft | 0 kts | 225° |
| 2026-05-07 20:53 | 34.87001 | 33.61116 | 24 ft | 0 kts | 225° |
| 2026-05-07 20:56 | 34.87014 | 33.61132 | 24 ft | 3 kts | 225° |
| 2026-05-07 20:56 | 34.87027 | 33.61148 | 28 ft | 3 kts | 225° |
| 2026-05-07 20:57 | 34.87040 | 33.61164 | 24 ft | 3 kts | 227° |
| 2026-05-07 20:57 | 34.87054 | 33.61173 | 27 ft | 3 kts | 181° |
| 2026-05-07 20:57 | 34.87069 | 33.61166 | 26 ft | 0 kts | 131° |
| 2026-05-07 21:02 | 34.87038 | 33.61200 | 24 ft | 8 kts | 141° |
| 2026-05-07 21:02 | 34.86986 | 33.61258 | 24 ft | 11 kts | 135° |
| 2026-05-07 21:03 | 34.86925 | 33.61333 | 21 ft | 15 kts | 134° |
| 2026-05-07 21:03 | 34.86840 | 33.61374 | 21 ft | 14 kts | 211° |
| 2026-05-07 21:03 | 34.86765 | 33.61289 | 22 ft | 15 kts | 223° |
| 2026-05-07 21:03 | 34.86692 | 33.61200 | 24 ft | 14 kts | 226° |
| 2026-05-07 21:04 | 34.86622 | 33.61110 | 24 ft | 15 kts | 226° |
| 2026-05-07 21:04 | 34.86534 | 33.61038 | 25 ft | 15 kts | 177° |
| 2026-05-07 21:04 | 34.86485 | 33.61127 | 25 ft | 16 kts | 77° |
| 2026-05-07 21:04 | 34.86465 | 33.61241 | 25 ft | 13 kts | 104° |
| 2026-05-07 21:05 | 34.86530 | 33.61361 | 23 ft | 32 kts | 45° |
| 2026-05-07 21:05 | 34.86829 | 33.61726 | 21 ft | 89 kts | 45° |
| 2026-05-07 21:05 | 34.87390 | 33.62411 | 20 ft | 137 kts | 45° |
| 2026-05-07 21:05 | 34.88150 | 33.63343 | 62 ft | 169 kts | 44° |
| 2026-05-07 21:06 | 34.88970 | 33.64397 | 466 ft | 175 kts | 45° |
| 2026-05-07 21:06 | 34.89800 | 33.65485 | 967 ft | 179 kts | 47° |
| 2026-05-07 21:06 | 34.90722 | 33.66595 | 1280 ft | 194 kts | 41° |
| 2026-05-07 21:06 | 34.91590 | 33.67958 | 1539 ft | 218 kts | 69° |
| 2026-05-07 21:07 | 34.91691 | 33.69873 | 2061 ft | 237 kts | 103° |
| 2026-05-07 21:07 | 34.90883 | 33.71630 | 2946 ft | 246 kts | 136° |
| 2026-05-07 21:07 | 34.89368 | 33.72635 | 3877 ft | 252 kts | 168° |
| 2026-05-07 21:07 | 34.87639 | 33.72478 | 4735 ft | 255 kts | 204° |
| 2026-05-07 21:08 | 34.86284 | 33.71090 | 5336 ft | 261 kts | 242° |
| 2026-05-07 21:08 | 34.85881 | 33.68979 | 6030 ft | 259 kts | 279° |
| 2026-05-07 21:08 | 34.86367 | 33.66867 | 6712 ft | 261 kts | 294° |
| 2026-05-07 21:08 | 34.86959 | 33.64762 | 7461 ft | 264 kts | 288° |
| 2026-05-07 21:09 | 34.87263 | 33.62555 | 8221 ft | 267 kts | 272° |
| 2026-05-07 21:09 | 34.87079 | 33.60315 | 8974 ft | 271 kts | 262° |
| 2026-05-07 21:09 | 34.86675 | 33.58059 | 9771 ft | 273 kts | 260° |
| 2026-05-07 21:09 | 34.86309 | 33.55789 | 10518 ft | 273 kts | 263° |
| 2026-05-07 21:10 | 34.86013 | 33.53502 | 11266 ft | 273 kts | 264° |
| 2026-05-07 21:10 | 34.85711 | 33.51217 | 12001 ft | 274 kts | 264° |
| 2026-05-07 21:10 | 34.85383 | 33.48932 | 12725 ft | 274 kts | 264° |
| 2026-05-07 21:10 | 34.85054 | 33.46635 | 13449 ft | 275 kts | 264° |
| 2026-05-07 21:11 | 34.84731 | 33.44329 | 14176 ft | 276 kts | 264° |
| 2026-05-07 21:11 | 34.84408 | 33.42024 | 14755 ft | 281 kts | 264° |
| 2026-05-07 21:11 | 34.83708 | 33.37043 | 15195 ft | 316 kts | 264° |
| 2026-05-07 21:12 | 34.83323 | 33.34337 | 15398 ft | 333 kts | 264° |
| 2026-05-07 21:12 | 34.82928 | 33.31589 | 16124 ft | 331 kts | 264° |
| 2026-05-07 21:12 | 34.82532 | 33.28819 | 16784 ft | 334 kts | 264° |
| 2026-05-07 21:12 | 34.82136 | 33.26015 | 17388 ft | 337 kts | 264° |
| 2026-05-07 21:13 | 34.81733 | 33.23198 | 18040 ft | 339 kts | 264° |
| 2026-05-07 21:13 | 34.81326 | 33.20352 | 18627 ft | 342 kts | 264° |
| 2026-05-07 21:13 | 34.80916 | 33.17490 | 19149 ft | 344 kts | 264° |
| 2026-05-07 21:13 | 34.80502 | 33.14610 | 19687 ft | 347 kts | 264° |
| 2026-05-07 21:14 | 34.80089 | 33.11750 | 20482 ft | 339 kts | 264° |
| 2026-05-07 21:14 | 34.79683 | 33.08933 | 21092 ft | 340 kts | 264° |
| 2026-05-07 21:14 | 34.79280 | 33.06090 | 21583 ft | 342 kts | 264° |
| 2026-05-07 21:14 | 34.78879 | 33.03227 | 22068 ft | 344 kts | 264° |
| 2026-05-07 21:15 | 34.78476 | 33.00347 | 22546 ft | 347 kts | 264° |
| 2026-05-07 21:15 | 34.78066 | 32.97478 | 22990 ft | 349 kts | 264° |
| 2026-05-07 21:15 | 34.77649 | 32.94562 | 23461 ft | 351 kts | 264° |
| 2026-05-07 21:15 | 34.77232 | 32.91625 | 23874 ft | 354 kts | 264° |
| 2026-05-07 21:16 | 34.76811 | 32.88666 | 24243 ft | 355 kts | 265° |
| 2026-05-07 21:16 | 34.76385 | 32.85688 | 24517 ft | 360 kts | 264° |
| 2026-05-07 21:16 | 34.75954 | 32.82678 | 24904 ft | 362 kts | 264° |
| 2026-05-07 21:16 | 34.75520 | 32.79653 | 25292 ft | 364 kts | 264° |
| 2026-05-07 21:17 | 34.75083 | 32.76611 | 25641 ft | 366 kts | 264° |
| 2026-05-07 21:17 | 34.74792 | 32.74590 | 25893 ft | 367 kts | 264° |
| 2026-05-07 21:17 | 34.74351 | 32.71527 | 26251 ft | 368 kts | 264° |
| 2026-05-07 21:17 | 34.73750 | 32.67444 | 26719 ft | 372 kts | 264° |
| 2026-05-07 21:18 | 34.73274 | 32.64345 | 27036 ft | 374 kts | 263° |
| 2026-05-07 21:18 | 34.72797 | 32.61233 | 27401 ft | 375 kts | 264° |
| 2026-05-07 21:18 | 34.72325 | 32.58092 | 27662 ft | 379 kts | 264° |
| 2026-05-07 21:18 | 34.72003 | 32.55955 | 27894 ft | 380 kts | 264° |
| 2026-05-07 21:19 | 34.71527 | 32.52833 | 28240 ft | 382 kts | 264° |
| 2026-05-07 21:19 | 34.71084 | 32.49648 | 28542 ft | 382 kts | 266° |
| 2026-05-07 21:19 | 34.70860 | 32.46430 | 28844 ft | 382 kts | 272° |
| 2026-05-07 21:19 | 34.70807 | 32.43201 | 29149 ft | 383 kts | 272° |
| 2026-05-07 21:20 | 34.70683 | 32.39950 | 29445 ft | 386 kts | 269° |
| 2026-05-07 21:20 | 34.70456 | 32.36686 | 29720 ft | 388 kts | 268° |
| 2026-05-07 21:20 | 34.70247 | 32.33395 | 29955 ft | 391 kts | 270° |
| 2026-05-07 21:20 | 34.70094 | 32.30076 | 30139 ft | 395 kts | 270° |
| 2026-05-07 21:21 | 34.69742 | 32.23267 | 30132 ft | 412 kts | 269° |
| 2026-05-07 21:21 | 34.69347 | 32.16191 | 30135 ft | 427 kts | 270° |
| 2026-05-07 21:22 | 34.68953 | 32.08916 | 30132 ft | 441 kts | 269° |
| 2026-05-07 21:22 | 34.68529 | 32.01374 | 30139 ft | 454 kts | 269° |
| 2026-05-07 21:23 | 34.68231 | 31.93615 | 30128 ft | 462 kts | 277° |
| 2026-05-07 21:23 | 34.69909 | 31.86077 | 30144 ft | 465 kts | 297° |
| 2026-05-07 21:24 | 34.73105 | 31.79315 | 30142 ft | 464 kts | 304° |
| 2026-05-07 21:24 | 34.76485 | 31.72616 | 30136 ft | 464 kts | 300° |
| 2026-05-07 21:25 | 34.79705 | 31.65788 | 30136 ft | 464 kts | 302° |
| 2026-05-07 21:25 | 34.83043 | 31.59060 | 30136 ft | 464 kts | 301° |
| 2026-05-07 21:26 | 34.86283 | 31.52256 | 30137 ft | 464 kts | 301° |
| 2026-05-07 21:26 | 34.89570 | 31.45527 | 30129 ft | 465 kts | 301° |
| 2026-05-07 21:27 | 34.92829 | 31.38721 | 30129 ft | 465 kts | 301° |
| 2026-05-07 21:27 | 34.96117 | 31.31920 | 30128 ft | 465 kts | 301° |
| 2026-05-07 21:28 | 34.99385 | 31.25096 | 30132 ft | 465 kts | 301° |
| 2026-05-07 21:28 | 35.02636 | 31.18330 | 30125 ft | 465 kts | 301° |
| 2026-05-07 21:29 | 35.05896 | 31.11506 | 30120 ft | 465 kts | 301° |
| 2026-05-07 21:29 | 35.09159 | 31.04678 | 30144 ft | 463 kts | 301° |
| 2026-05-07 21:30 | 35.12397 | 30.97881 | 30133 ft | 463 kts | 301° |
| 2026-05-07 21:30 | 35.15635 | 30.91076 | 30120 ft | 464 kts | 302° |
| 2026-05-07 21:31 | 35.19198 | 30.84538 | 30134 ft | 462 kts | 310° |
| 2026-05-07 21:31 | 35.23667 | 30.78881 | 30134 ft | 462 kts | 316° |
| 2026-05-07 21:32 | 35.28054 | 30.73115 | 30132 ft | 462 kts | 312° |
| 2026-05-07 21:32 | 35.32409 | 30.67395 | 30132 ft | 462 kts | 314° |
| 2026-05-07 21:33 | 35.36826 | 30.61639 | 30136 ft | 462 kts | 313° |
| 2026-05-07 21:33 | 35.41196 | 30.55862 | 30134 ft | 462 kts | 314° |
| 2026-05-07 21:34 | 35.45594 | 30.50105 | 30140 ft | 462 kts | 313° |
| 2026-05-07 21:34 | 35.49929 | 30.44366 | 30135 ft | 461 kts | 314° |
| 2026-05-07 21:35 | 35.54303 | 30.38608 | 30121 ft | 461 kts | 313° |
| 2026-05-07 21:35 | 35.58673 | 30.32817 | 30121 ft | 461 kts | 314° |
| 2026-05-07 21:36 | 35.63045 | 30.27030 | 30122 ft | 461 kts | 313° |
| 2026-05-07 21:36 | 35.67413 | 30.21229 | 30121 ft | 461 kts | 313° |
| 2026-05-07 21:37 | 35.71758 | 30.15453 | 30122 ft | 461 kts | 313° |
| 2026-05-07 21:37 | 35.76114 | 30.09652 | 30129 ft | 462 kts | 313° |
| 2026-05-07 21:38 | 35.80474 | 30.03834 | 30127 ft | 462 kts | 313° |
| 2026-05-07 21:38 | 35.84044 | 29.97299 | 30121 ft | 464 kts | 296° |
| 2026-05-07 21:39 | 35.86197 | 29.89770 | 30128 ft | 467 kts | 289° |
| 2026-05-07 21:39 | 35.88133 | 29.82139 | 30122 ft | 466 kts | 292° |
| 2026-05-07 21:40 | 35.90279 | 29.74590 | 30118 ft | 467 kts | 290° |
| 2026-05-07 21:40 | 35.92260 | 29.66958 | 30123 ft | 467 kts | 291° |
| 2026-05-07 21:41 | 35.94381 | 29.59382 | 30125 ft | 466 kts | 293° |
| 2026-05-07 21:41 | 35.95844 | 29.55824 | 30135 ft | 463 kts | 304° |
| 2026-05-07 21:41 | 35.97827 | 29.52699 | 30138 ft | 463 kts | 315° |
| 2026-05-07 21:42 | 36.02637 | 29.47487 | 30142 ft | 463 kts | 323° |
| 2026-05-07 21:42 | 36.07715 | 29.42576 | 30130 ft | 463 kts | 320° |
| 2026-05-07 21:43 | 36.12628 | 29.37413 | 30142 ft | 463 kts | 321° |
| 2026-05-07 21:43 | 36.17662 | 29.32410 | 30134 ft | 463 kts | 320° |
| 2026-05-07 21:44 | 36.22539 | 29.27262 | 30131 ft | 463 kts | 320° |
| 2026-05-07 21:44 | 36.27467 | 29.22113 | 30127 ft | 464 kts | 320° |
| 2026-05-07 21:45 | 36.32391 | 29.16934 | 30126 ft | 464 kts | 320° |
| 2026-05-07 21:45 | 36.37322 | 29.11748 | 30130 ft | 464 kts | 320° |
| 2026-05-07 21:46 | 36.42243 | 29.06558 | 30129 ft | 464 kts | 320° |
| 2026-05-07 21:46 | 36.47133 | 29.01396 | 30124 ft | 464 kts | 320° |
| 2026-05-07 21:47 | 36.52054 | 28.96188 | 30126 ft | 464 kts | 320° |
| 2026-05-07 21:47 | 36.56973 | 28.90977 | 30138 ft | 464 kts | 320° |
| 2026-05-07 21:48 | 36.61880 | 28.85767 | 30137 ft | 464 kts | 320° |
| 2026-05-07 21:48 | 36.66759 | 28.80580 | 30138 ft | 464 kts | 320° |
| 2026-05-07 21:49 | 36.71674 | 28.75354 | 30135 ft | 464 kts | 320° |
| 2026-05-07 21:49 | 36.76615 | 28.70132 | 30136 ft | 464 kts | 320° |
| 2026-05-07 21:50 | 36.81529 | 28.64904 | 30127 ft | 465 kts | 320° |
| 2026-05-07 21:50 | 36.86422 | 28.59706 | 30143 ft | 463 kts | 320° |
| 2026-05-07 21:51 | 36.91328 | 28.54473 | 30146 ft | 463 kts | 320° |
| 2026-05-07 21:51 | 36.96240 | 28.49234 | 30153 ft | 463 kts | 320° |
| 2026-05-07 21:52 | 37.01140 | 28.43992 | 30153 ft | 463 kts | 320° |
| 2026-05-07 21:52 | 37.06040 | 28.38744 | 30153 ft | 463 kts | 320° |
| 2026-05-07 21:53 | 37.10932 | 28.33475 | 30152 ft | 464 kts | 319° |
| 2026-05-07 21:53 | 37.15813 | 28.28164 | 30148 ft | 464 kts | 319° |
| 2026-05-07 21:54 | 37.20714 | 28.22900 | 30150 ft | 464 kts | 320° |
| 2026-05-07 21:54 | 37.25609 | 28.17611 | 30146 ft | 464 kts | 319° |
| 2026-05-07 21:55 | 37.30506 | 28.12320 | 30145 ft | 464 kts | 319° |
| 2026-05-07 21:55 | 37.35359 | 28.07027 | 30145 ft | 464 kts | 319° |
| 2026-05-07 21:56 | 37.40249 | 28.01688 | 30147 ft | 465 kts | 319° |
| 2026-05-07 21:56 | 37.45133 | 27.96346 | 30158 ft | 464 kts | 319° |
| 2026-05-07 21:57 | 37.50007 | 27.91003 | 30157 ft | 465 kts | 319° |
| 2026-05-07 21:57 | 37.54886 | 27.85649 | 30154 ft | 465 kts | 319° |
| 2026-05-07 21:58 | 37.59758 | 27.80289 | 30149 ft | 464 kts | 319° |
| 2026-05-07 21:58 | 37.64601 | 27.74953 | 30150 ft | 465 kts | 319° |
| 2026-05-07 21:59 | 37.69474 | 27.69574 | 30149 ft | 465 kts | 319° |
| 2026-05-07 21:59 | 37.74341 | 27.64193 | 30154 ft | 464 kts | 319° |
| 2026-05-07 22:00 | 37.79198 | 27.58810 | 30147 ft | 464 kts | 319° |
| 2026-05-07 22:00 | 37.84059 | 27.53416 | 30149 ft | 464 kts | 319° |
| 2026-05-07 22:01 | 37.88916 | 27.48016 | 30148 ft | 464 kts | 319° |
| 2026-05-07 22:01 | 37.93772 | 27.42695 | 30139 ft | 465 kts | 319° |
| 2026-05-07 22:02 | 37.98667 | 27.37325 | 30136 ft | 465 kts | 319° |
| 2026-05-07 22:02 | 38.03543 | 27.31951 | 30150 ft | 464 kts | 319° |
| 2026-05-07 22:03 | 38.08436 | 27.26567 | 30149 ft | 464 kts | 319° |
| 2026-05-07 22:03 | 38.13313 | 27.21175 | 30151 ft | 464 kts | 319° |
| 2026-05-07 22:04 | 38.18159 | 27.15819 | 30147 ft | 465 kts | 319° |
| 2026-05-07 22:04 | 38.23044 | 27.10403 | 30148 ft | 465 kts | 319° |
| 2026-05-07 22:05 | 38.27108 | 27.05892 | 30151 ft | 465 kts | 319° |
| 2026-05-07 22:05 | 38.31978 | 27.00476 | 30163 ft | 465 kts | 319° |
| 2026-05-07 22:06 | 38.36870 | 26.95083 | 30140 ft | 465 kts | 319° |
| 2026-05-07 22:06 | 38.41771 | 26.89671 | 30140 ft | 465 kts | 319° |
| 2026-05-07 22:07 | 38.46649 | 26.84271 | 30131 ft | 464 kts | 319° |
| 2026-05-07 22:07 | 38.51508 | 26.78884 | 30125 ft | 464 kts | 319° |
| 2026-05-07 22:08 | 38.56387 | 26.73465 | 30130 ft | 464 kts | 319° |
| 2026-05-07 22:08 | 38.61259 | 26.68041 | 30136 ft | 464 kts | 319° |
| 2026-05-07 22:09 | 38.66092 | 26.62654 | 30134 ft | 464 kts | 319° |
| 2026-05-07 22:09 | 38.70896 | 26.57285 | 30134 ft | 440 kts | 319° |
| 2026-05-07 22:10 | 38.73150 | 26.54759 | 30115 ft | 421 kts | 319° |
| 2026-05-07 22:10 | 38.75378 | 26.52266 | 30123 ft | 428 kts | 319° |
| 2026-05-07 22:10 | 38.79910 | 26.47190 | 30137 ft | 440 kts | 319° |
| 2026-05-07 22:11 | 38.84578 | 26.41977 | 30139 ft | 452 kts | 320° |
| 2026-05-07 22:11 | 38.89472 | 26.36865 | 30129 ft | 454 kts | 321° |
| 2026-05-07 22:12 | 38.94317 | 26.31680 | 30131 ft | 453 kts | 320° |
| 2026-05-07 22:12 | 38.99179 | 26.26527 | 30126 ft | 453 kts | 321° |
| 2026-05-07 22:13 | 39.04020 | 26.21360 | 30120 ft | 452 kts | 321° |
| 2026-05-07 22:13 | 39.08856 | 26.16180 | 30129 ft | 452 kts | 321° |
| 2026-05-07 22:14 | 39.13699 | 26.11001 | 30110 ft | 452 kts | 321° |
| 2026-05-07 22:14 | 39.18510 | 26.05848 | 30123 ft | 453 kts | 321° |
| 2026-05-07 22:15 | 39.23358 | 26.00659 | 30124 ft | 452 kts | 321° |
| 2026-05-07 22:15 | 39.28195 | 25.95447 | 30124 ft | 453 kts | 321° |
| 2026-05-07 22:16 | 39.32998 | 25.90171 | 30105 ft | 454 kts | 319° |
| 2026-05-07 22:16 | 39.37757 | 25.84819 | 30103 ft | 453 kts | 320° |
| 2026-05-07 22:17 | 39.42515 | 25.79540 | 30112 ft | 453 kts | 320° |
| 2026-05-07 22:17 | 39.47279 | 25.74190 | 30106 ft | 453 kts | 320° |
| 2026-05-07 22:18 | 39.54443 | 25.66163 | 30109 ft | 454 kts | 320° |
| 2026-05-07 22:19 | 39.59232 | 25.60785 | 30107 ft | 458 kts | 319° |
| 2026-05-07 22:19 | 39.64042 | 25.55365 | 30117 ft | 458 kts | 319° |
| 2026-05-07 22:20 | 39.68851 | 25.49943 | 30107 ft | 458 kts | 319° |
| 2026-05-07 22:20 | 39.73631 | 25.44537 | 30109 ft | 457 kts | 319° |
| 2026-05-07 22:21 | 39.78429 | 25.39106 | 30110 ft | 457 kts | 319° |
| 2026-05-07 22:21 | 39.83221 | 25.33668 | 30114 ft | 457 kts | 319° |
| 2026-05-07 22:22 | 39.88033 | 25.28198 | 30101 ft | 461 kts | 319° |
| 2026-05-07 22:22 | 39.92863 | 25.22692 | 30103 ft | 460 kts | 319° |
| 2026-05-07 22:23 | 39.97596 | 25.17148 | 30105 ft | 460 kts | 318° |
| 2026-05-07 22:23 | 40.02379 | 25.11573 | 30096 ft | 460 kts | 318° |
| 2026-05-07 22:24 | 40.07149 | 25.05984 | 30096 ft | 460 kts | 318° |
| 2026-05-07 22:24 | 40.11924 | 25.00389 | 30076 ft | 462 kts | 318° |
| 2026-05-07 22:25 | 40.16695 | 24.94780 | 30098 ft | 465 kts | 317° |
| 2026-05-07 22:25 | 40.21511 | 24.89112 | 30097 ft | 464 kts | 318° |
| 2026-05-07 22:26 | 40.26314 | 24.83445 | 30112 ft | 464 kts | 317° |
| 2026-05-07 22:26 | 40.31109 | 24.77779 | 30110 ft | 464 kts | 317° |
| 2026-05-07 22:27 | 40.35876 | 24.72131 | 30103 ft | 464 kts | 317° |
| 2026-05-07 22:27 | 40.40667 | 24.66447 | 30104 ft | 464 kts | 317° |
| 2026-05-07 22:28 | 40.45456 | 24.60751 | 30104 ft | 464 kts | 317° |
| 2026-05-07 22:28 | 40.50243 | 24.55047 | 30102 ft | 464 kts | 317° |
| 2026-05-07 22:29 | 40.54994 | 24.49376 | 30108 ft | 464 kts | 317° |
| 2026-05-07 22:29 | 40.59777 | 24.43654 | 30107 ft | 464 kts | 317° |
| 2026-05-07 22:30 | 40.64551 | 24.37930 | 30095 ft | 465 kts | 317° |
| 2026-05-07 22:30 | 40.69358 | 24.32156 | 30096 ft | 467 kts | 317° |
| 2026-05-07 22:31 | 40.74154 | 24.26383 | 30099 ft | 467 kts | 317° |
| 2026-05-07 22:31 | 40.78954 | 24.20595 | 30102 ft | 467 kts | 317° |
| 2026-05-07 22:32 | 40.83713 | 24.14844 | 30103 ft | 467 kts | 317° |
| 2026-05-07 22:32 | 40.88495 | 24.09052 | 30108 ft | 466 kts | 317° |
| 2026-05-07 22:33 | 40.93285 | 24.03238 | 30102 ft | 470 kts | 316° |
| 2026-05-07 22:33 | 40.98091 | 23.97396 | 30109 ft | 469 kts | 316° |
| 2026-05-07 22:34 | 41.02894 | 23.91543 | 30111 ft | 469 kts | 316° |
| 2026-05-07 22:34 | 41.07698 | 23.85678 | 30112 ft | 469 kts | 316° |
| 2026-05-07 22:35 | 41.12497 | 23.79805 | 30107 ft | 469 kts | 316° |
| 2026-05-07 22:35 | 41.17277 | 23.73945 | 30119 ft | 471 kts | 316° |
| 2026-05-07 22:36 | 41.22119 | 23.67994 | 30120 ft | 473 kts | 316° |
| 2026-05-07 22:36 | 41.26915 | 23.62089 | 30123 ft | 473 kts | 316° |
| 2026-05-07 22:37 | 41.31750 | 23.56123 | 30113 ft | 473 kts | 316° |
| 2026-05-07 22:37 | 41.36575 | 23.50157 | 30129 ft | 473 kts | 315° |
| 2026-05-07 22:38 | 41.41690 | 23.44673 | 30129 ft | 475 kts | 328° |
| 2026-05-07 22:38 | 41.47606 | 23.40741 | 30124 ft | 481 kts | 334° |
| 2026-05-07 22:39 | 41.53642 | 23.36917 | 30121 ft | 479 kts | 330° |
| 2026-05-07 22:39 | 41.59604 | 23.32913 | 30128 ft | 480 kts | 332° |
| 2026-05-07 22:40 | 41.65633 | 23.29052 | 30112 ft | 480 kts | 331° |
| 2026-05-07 22:40 | 41.71608 | 23.25063 | 30114 ft | 480 kts | 332° |
| 2026-05-07 22:41 | 41.77584 | 23.21181 | 30111 ft | 480 kts | 331° |
| 2026-05-07 22:41 | 41.83560 | 23.17208 | 30124 ft | 479 kts | 331° |
| 2026-05-07 22:42 | 41.89555 | 23.13270 | 30113 ft | 479 kts | 331° |
| 2026-05-07 22:42 | 41.95543 | 23.09292 | 30112 ft | 480 kts | 331° |
| 2026-05-07 22:43 | 42.01546 | 23.05320 | 30108 ft | 481 kts | 331° |
| 2026-05-07 22:43 | 42.07547 | 23.01326 | 30110 ft | 480 kts | 331° |
| 2026-05-07 22:44 | 42.13508 | 22.97358 | 30108 ft | 480 kts | 331° |
| 2026-05-07 22:44 | 42.19507 | 22.93352 | 30107 ft | 480 kts | 331° |
| 2026-05-07 22:45 | 42.25505 | 22.89341 | 30107 ft | 480 kts | 331° |
| 2026-05-07 22:45 | 42.31506 | 22.85316 | 30109 ft | 481 kts | 331° |
| 2026-05-07 22:46 | 42.37469 | 22.81312 | 30108 ft | 481 kts | 331° |
| 2026-05-07 22:46 | 42.43465 | 22.77273 | 30108 ft | 483 kts | 331° |
| 2026-05-07 22:47 | 42.49490 | 22.73209 | 30112 ft | 484 kts | 331° |
| 2026-05-07 22:47 | 42.55516 | 22.69134 | 30114 ft | 484 kts | 331° |
| 2026-05-07 22:48 | 42.61538 | 22.65053 | 30111 ft | 484 kts | 331° |
| 2026-05-07 22:48 | 42.67562 | 22.60963 | 30112 ft | 484 kts | 331° |
| 2026-05-07 22:49 | 42.73586 | 22.56861 | 30107 ft | 485 kts | 331° |
| 2026-05-07 22:49 | 42.79579 | 22.52776 | 30106 ft | 485 kts | 330° |
| 2026-05-07 22:50 | 42.85590 | 22.48554 | 30113 ft | 486 kts | 327° |
| 2026-05-07 22:50 | 42.91164 | 22.43430 | 30093 ft | 482 kts | 320° |
| 2026-05-07 22:51 | 42.96665 | 22.38180 | 30112 ft | 482 kts | 324° |
| 2026-05-07 22:51 | 43.02281 | 22.33170 | 30091 ft | 481 kts | 322° |
| 2026-05-07 22:52 | 43.07801 | 22.27939 | 30095 ft | 485 kts | 323° |
| 2026-05-07 22:52 | 43.13388 | 22.22867 | 30094 ft | 484 kts | 322° |
| 2026-05-07 22:53 | 43.18940 | 22.17644 | 30094 ft | 483 kts | 322° |
| 2026-05-07 22:53 | 43.24490 | 22.12532 | 30077 ft | 480 kts | 322° |
| 2026-05-07 22:54 | 43.30018 | 22.07347 | 30083 ft | 482 kts | 322° |
| 2026-05-07 22:54 | 43.35579 | 22.02174 | 30092 ft | 482 kts | 322° |
| 2026-05-07 22:55 | 43.40191 | 21.97847 | 30085 ft | 482 kts | 322° |
| 2026-05-07 22:55 | 43.46625 | 21.91816 | 30073 ft | 480 kts | 322° |
| 2026-05-07 22:56 | 43.51215 | 21.87497 | 30070 ft | 480 kts | 322° |
| 2026-05-07 22:56 | 43.56730 | 21.82301 | 30067 ft | 480 kts | 322° |
| 2026-05-07 22:57 | 43.62239 | 21.77099 | 30060 ft | 480 kts | 322° |
| 2026-05-07 22:57 | 43.67745 | 21.71887 | 30068 ft | 478 kts | 322° |
| 2026-05-07 22:58 | 43.73229 | 21.66684 | 30073 ft | 481 kts | 322° |
| 2026-05-07 22:58 | 43.78752 | 21.61434 | 30072 ft | 481 kts | 322° |
| 2026-05-07 22:59 | 43.84270 | 21.56176 | 30067 ft | 481 kts | 322° |
| 2026-05-07 22:59 | 43.89783 | 21.50909 | 30060 ft | 481 kts | 322° |
| 2026-05-07 23:00 | 43.95248 | 21.45679 | 30065 ft | 481 kts | 321° |
| 2026-05-07 23:00 | 44.00762 | 21.40387 | 30065 ft | 482 kts | 321° |
| 2026-05-07 23:01 | 44.06284 | 21.35078 | 30061 ft | 482 kts | 321° |
| 2026-05-07 23:01 | 44.11796 | 21.29763 | 30052 ft | 482 kts | 321° |
| 2026-05-07 23:02 | 44.17296 | 21.24450 | 30049 ft | 480 kts | 321° |
| 2026-05-07 23:02 | 44.22812 | 21.19109 | 30050 ft | 482 kts | 321° |
| 2026-05-07 23:03 | 44.28318 | 21.13763 | 30046 ft | 482 kts | 321° |
| 2026-05-07 23:03 | 44.33782 | 21.08448 | 30045 ft | 482 kts | 321° |
| 2026-05-07 23:04 | 44.39280 | 21.03086 | 30045 ft | 482 kts | 321° |
| 2026-05-07 23:04 | 44.44797 | 20.97694 | 30045 ft | 483 kts | 321° |
| 2026-05-07 23:05 | 44.50303 | 20.92299 | 30043 ft | 483 kts | 321° |
| 2026-05-07 23:05 | 44.55813 | 20.86888 | 30040 ft | 483 kts | 321° |
| 2026-05-07 23:06 | 44.61318 | 20.81469 | 30043 ft | 483 kts | 321° |
| 2026-05-07 23:06 | 44.66790 | 20.76070 | 30043 ft | 481 kts | 321° |
| 2026-05-07 23:07 | 44.72281 | 20.70638 | 30041 ft | 482 kts | 321° |
| 2026-05-07 23:07 | 44.77765 | 20.65203 | 30041 ft | 482 kts | 321° |
| 2026-05-07 23:08 | 44.83211 | 20.59790 | 30032 ft | 482 kts | 320° |
| 2026-05-07 23:08 | 44.88696 | 20.54326 | 30031 ft | 484 kts | 320° |
| 2026-05-07 23:09 | 44.94192 | 20.48840 | 30025 ft | 484 kts | 320° |
| 2026-05-07 23:09 | 44.99689 | 20.43338 | 30019 ft | 483 kts | 320° |
| 2026-05-07 23:10 | 45.05176 | 20.37832 | 30024 ft | 483 kts | 320° |
| 2026-05-07 23:10 | 45.10634 | 20.32343 | 30031 ft | 485 kts | 320° |
| 2026-05-07 23:11 | 45.16135 | 20.26799 | 30036 ft | 484 kts | 320° |
| 2026-05-07 23:11 | 45.21622 | 20.21254 | 30027 ft | 484 kts | 320° |
| 2026-05-07 23:12 | 45.27099 | 20.15704 | 30033 ft | 483 kts | 320° |
| 2026-05-07 23:12 | 45.29768 | 20.13006 | 30023 ft | 461 kts | 320° |
| 2026-05-07 23:12 | 45.32335 | 20.10396 | 30042 ft | 458 kts | 319° |
| 2026-05-07 23:13 | 45.37545 | 20.05076 | 30020 ft | 463 kts | 319° |
| 2026-05-07 23:13 | 45.42794 | 19.99735 | 30031 ft | 464 kts | 319° |
| 2026-05-07 23:14 | 45.48030 | 19.94373 | 30031 ft | 464 kts | 319° |
| 2026-05-07 23:14 | 45.53268 | 19.89010 | 30030 ft | 464 kts | 319° |
| 2026-05-07 23:15 | 45.58518 | 19.83612 | 30017 ft | 466 kts | 319° |
| 2026-05-07 23:15 | 45.63772 | 19.78206 | 30022 ft | 465 kts | 319° |
| 2026-05-07 23:16 | 45.68996 | 19.72810 | 30029 ft | 467 kts | 319° |
| 2026-05-07 23:16 | 45.74256 | 19.67373 | 30020 ft | 466 kts | 319° |
| 2026-05-07 23:17 | 45.79518 | 19.61912 | 30013 ft | 466 kts | 319° |
| 2026-05-07 23:17 | 45.84776 | 19.56450 | 30021 ft | 466 kts | 319° |
| 2026-05-07 23:18 | 45.90028 | 19.50976 | 30008 ft | 466 kts | 319° |
| 2026-05-07 23:18 | 45.95272 | 19.45497 | 30014 ft | 468 kts | 319° |
| 2026-05-07 23:19 | 46.00540 | 19.39984 | 30003 ft | 468 kts | 319° |
| 2026-05-07 23:19 | 46.05798 | 19.34410 | 30001 ft | 470 kts | 318° |
| 2026-05-07 23:20 | 46.10744 | 19.28311 | 29993 ft | 466 kts | 314° |
| 2026-05-07 23:20 | 46.15717 | 19.22360 | 29999 ft | 468 kts | 317° |
| 2026-05-07 23:21 | 46.20724 | 19.16308 | 29997 ft | 469 kts | 315° |
| 2026-05-07 23:21 | 46.25712 | 19.10241 | 30017 ft | 469 kts | 316° |
| 2026-05-07 23:22 | 46.30732 | 19.04165 | 29994 ft | 470 kts | 315° |
| 2026-05-07 23:22 | 46.35741 | 18.98042 | 29994 ft | 470 kts | 316° |
| 2026-05-07 23:23 | 46.40718 | 18.91981 | 29992 ft | 470 kts | 315° |
| 2026-05-07 23:23 | 46.45721 | 18.85841 | 29986 ft | 475 kts | 316° |
| 2026-05-07 23:24 | 46.50778 | 18.79648 | 29982 ft | 475 kts | 316° |
| 2026-05-07 23:24 | 46.55813 | 18.73445 | 29988 ft | 474 kts | 316° |
| 2026-05-07 23:25 | 46.60845 | 18.67244 | 29979 ft | 474 kts | 316° |
| 2026-05-07 23:25 | 46.65878 | 18.61017 | 29972 ft | 474 kts | 316° |
| 2026-05-07 23:26 | 46.70876 | 18.54822 | 29971 ft | 477 kts | 316° |
| 2026-05-07 23:26 | 46.75970 | 18.48489 | 29969 ft | 482 kts | 316° |
| 2026-05-07 23:27 | 46.83605 | 18.38970 | 29963 ft | 480 kts | 315° |
| 2026-05-07 23:27 | 46.88690 | 18.32611 | 29961 ft | 480 kts | 315° |
| 2026-05-07 23:28 | 46.93765 | 18.26247 | 29953 ft | 479 kts | 315° |
| 2026-05-07 23:28 | 46.98779 | 18.19939 | 29961 ft | 479 kts | 315° |
| 2026-05-07 23:29 | 47.03837 | 18.13565 | 29962 ft | 479 kts | 315° |
| 2026-05-07 23:29 | 47.08891 | 18.07176 | 29955 ft | 479 kts | 315° |
| 2026-05-07 23:30 | 47.13933 | 18.00787 | 29946 ft | 479 kts | 315° |
| 2026-05-07 23:30 | 47.18989 | 17.94363 | 29949 ft | 481 kts | 314° |
| 2026-05-07 23:31 | 47.24022 | 17.87954 | 29946 ft | 481 kts | 314° |
| 2026-05-07 23:31 | 47.29084 | 17.81485 | 29939 ft | 482 kts | 314° |
| 2026-05-07 23:32 | 47.34145 | 17.75008 | 29962 ft | 482 kts | 314° |
| 2026-05-07 23:32 | 47.39202 | 17.68513 | 29964 ft | 482 kts | 314° |
| 2026-05-07 23:33 | 47.44233 | 17.62037 | 29968 ft | 482 kts | 314° |
| 2026-05-07 23:33 | 47.49285 | 17.55516 | 29965 ft | 482 kts | 314° |
| 2026-05-07 23:34 | 47.54333 | 17.48984 | 29960 ft | 482 kts | 314° |
| 2026-05-07 23:34 | 47.59376 | 17.42438 | 29953 ft | 482 kts | 314° |
| 2026-05-07 23:35 | 47.64414 | 17.35885 | 29943 ft | 482 kts | 314° |
| 2026-05-07 23:35 | 47.69448 | 17.29317 | 29935 ft | 482 kts | 314° |
| 2026-05-07 23:36 | 47.74478 | 17.22738 | 29931 ft | 482 kts | 314° |
| 2026-05-07 23:36 | 47.79505 | 17.16145 | 29933 ft | 482 kts | 314° |
| 2026-05-07 23:37 | 47.84685 | 17.09718 | 29941 ft | 488 kts | 319° |
| 2026-05-07 23:37 | 47.90465 | 17.04432 | 29948 ft | 492 kts | 326° |
| 2026-05-07 23:38 | 47.96228 | 16.98991 | 29928 ft | 488 kts | 320° |
| 2026-05-07 23:38 | 48.01941 | 16.93453 | 29940 ft | 491 kts | 324° |
| 2026-05-07 23:39 | 48.07718 | 16.88016 | 29934 ft | 490 kts | 322° |
| 2026-05-07 23:39 | 48.13439 | 16.82446 | 29965 ft | 491 kts | 323° |
| 2026-05-07 23:40 | 48.19211 | 16.76955 | 29964 ft | 490 kts | 322° |
| 2026-05-07 23:40 | 48.24941 | 16.71381 | 29959 ft | 491 kts | 322° |
| 2026-05-07 23:41 | 48.30660 | 16.65881 | 29958 ft | 491 kts | 322° |
| 2026-05-07 23:41 | 48.36404 | 16.60287 | 29955 ft | 492 kts | 322° |
| 2026-05-07 23:42 | 48.42155 | 16.54711 | 29941 ft | 488 kts | 322° |
| 2026-05-07 23:42 | 48.47858 | 16.49135 | 29932 ft | 489 kts | 322° |
| 2026-05-07 23:43 | 48.53568 | 16.43560 | 29935 ft | 489 kts | 322° |
| 2026-05-07 23:43 | 48.59279 | 16.37954 | 29939 ft | 491 kts | 322° |
| 2026-05-07 23:44 | 48.64964 | 16.32366 | 29938 ft | 490 kts | 322° |
| 2026-05-07 23:44 | 48.70676 | 16.26735 | 29938 ft | 488 kts | 321° |
| 2026-05-07 23:45 | 48.75399 | 16.22068 | 29924 ft | 488 kts | 321° |
| 2026-05-07 23:45 | 48.81573 | 16.17484 | 29932 ft | 500 kts | 334° |
| 2026-05-07 23:46 | 48.88163 | 16.13946 | 29929 ft | 501 kts | 333° |
| 2026-05-07 23:46 | 48.94566 | 16.09838 | 29918 ft | 499 kts | 332° |
| 2026-05-07 23:47 | 49.01078 | 16.06044 | 29921 ft | 501 kts | 334° |
| 2026-05-07 23:47 | 49.07563 | 16.02036 | 29916 ft | 507 kts | 332° |
| 2026-05-07 23:48 | 49.14133 | 15.98081 | 29922 ft | 507 kts | 333° |
| 2026-05-07 23:48 | 49.20679 | 15.94077 | 29917 ft | 506 kts | 332° |
| 2026-05-07 23:49 | 49.27219 | 15.90076 | 29914 ft | 507 kts | 333° |
| 2026-05-07 23:49 | 49.33725 | 15.86098 | 29904 ft | 505 kts | 333° |
| 2026-05-07 23:50 | 49.40255 | 15.82050 | 29907 ft | 504 kts | 331° |
| 2026-05-07 23:50 | 49.43302 | 15.79505 | 29906 ft | 496 kts | 320° |
| 2026-05-07 23:50 | 49.45957 | 15.76225 | 29890 ft | 485 kts | 309° |
| 2026-05-07 23:51 | 49.49924 | 15.68137 | 29910 ft | 468 kts | 293° |
| 2026-05-07 23:51 | 49.52826 | 15.59319 | 29916 ft | 463 kts | 288° |
| 2026-05-07 23:52 | 49.55816 | 15.50479 | 29662 ft | 467 kts | 291° |
| 2026-05-07 23:52 | 49.57359 | 15.46192 | 28889 ft | 447 kts | 292° |
| 2026-05-07 23:52 | 49.58859 | 15.42103 | 28176 ft | 430 kts | 292° |
| 2026-05-07 23:53 | 49.60327 | 15.38167 | 27255 ft | 418 kts | 292° |
| 2026-05-07 23:53 | 49.61781 | 15.34321 | 26329 ft | 410 kts | 293° |
| 2026-05-07 23:53 | 49.63213 | 15.30574 | 25445 ft | 403 kts | 293° |
| 2026-05-07 23:53 | 49.64637 | 15.26886 | 24582 ft | 397 kts | 294° |
| 2026-05-07 23:54 | 49.66167 | 15.23340 | 23767 ft | 397 kts | 300° |
| 2026-05-07 23:54 | 49.67857 | 15.19989 | 22858 ft | 393 kts | 302° |
| 2026-05-07 23:54 | 49.69682 | 15.16848 | 21921 ft | 394 kts | 309° |
| 2026-05-07 23:54 | 49.71768 | 15.14103 | 21016 ft | 395 kts | 318° |
| 2026-05-07 23:55 | 49.74087 | 15.11841 | 20150 ft | 394 kts | 327° |
| 2026-05-07 23:55 | 49.76555 | 15.10112 | 19174 ft | 396 kts | 335° |
| 2026-05-07 23:55 | 49.79191 | 15.08867 | 18225 ft | 396 kts | 345° |
| 2026-05-07 23:55 | 49.81935 | 15.08769 | 17188 ft | 395 kts | 8° |
| 2026-05-07 23:56 | 49.84463 | 15.10272 | 16215 ft | 390 kts | 33° |
| 2026-05-07 23:56 | 49.86374 | 15.13179 | 15233 ft | 382 kts | 59° |
| 2026-05-07 23:56 | 49.87332 | 15.16920 | 14309 ft | 372 kts | 84° |
| 2026-05-07 23:56 | 49.87197 | 15.20851 | 13398 ft | 364 kts | 110° |
| 2026-05-07 23:57 | 49.86048 | 15.24176 | 12398 ft | 342 kts | 136° |
| 2026-05-07 23:57 | 49.84174 | 15.26188 | 11566 ft | 319 kts | 165° |
| 2026-05-07 23:57 | 49.82079 | 15.26434 | 11030 ft | 294 kts | 195° |
| 2026-05-07 23:57 | 49.80332 | 15.25065 | 10511 ft | 277 kts | 219° |
| 2026-05-07 23:58 | 49.78790 | 15.23321 | 9991 ft | 273 kts | 216° |
| 2026-05-07 23:58 | 49.77378 | 15.21408 | 9446 ft | 269 kts | 234° |
| 2026-05-07 23:58 | 49.76416 | 15.18962 | 9438 ft | 267 kts | 240° |
| 2026-05-07 23:58 | 49.75427 | 15.16538 | 9484 ft | 267 kts | 234° |
| 2026-05-07 23:59 | 49.74281 | 15.14271 | 9533 ft | 268 kts | 231° |
| 2026-05-07 23:59 | 49.73116 | 15.12065 | 9535 ft | 268 kts | 232° |
| 2026-05-07 23:59 | 49.71998 | 15.09761 | 9514 ft | 268 kts | 238° |
| 2026-05-07 23:59 | 49.71307 | 15.07104 | 9484 ft | 268 kts | 257° |
| 2026-05-08 00:00 | 49.71223 | 15.04218 | 9468 ft | 273 kts | 275° |
| 2026-05-08 00:00 | 49.71689 | 15.01356 | 9472 ft | 277 kts | 286° |
| 2026-05-08 00:00 | 49.72415 | 14.98589 | 9463 ft | 278 kts | 290° |
| 2026-05-08 00:00 | 49.73176 | 14.95851 | 9443 ft | 277 kts | 289° |
| 2026-05-08 00:01 | 49.73865 | 14.93072 | 9416 ft | 276 kts | 287° |
| 2026-05-08 00:01 | 49.74533 | 14.90282 | 9382 ft | 277 kts | 288° |
| 2026-05-08 00:01 | 49.75222 | 14.87509 | 9361 ft | 276 kts | 288° |
| 2026-05-08 00:01 | 49.75920 | 14.84735 | 9336 ft | 276 kts | 288° |
| 2026-05-08 00:02 | 49.76608 | 14.81967 | 9308 ft | 276 kts | 288° |
| 2026-05-08 00:02 | 49.77283 | 14.79225 | 9279 ft | 276 kts | 288° |
| 2026-05-08 00:02 | 49.77970 | 14.76449 | 9255 ft | 276 kts | 288° |
| 2026-05-08 00:02 | 49.78657 | 14.73673 | 9232 ft | 276 kts | 288° |
| 2026-05-08 00:03 | 49.79339 | 14.70897 | 9209 ft | 276 kts | 287° |
| 2026-05-08 00:03 | 49.80009 | 14.68119 | 9181 ft | 275 kts | 288° |
| 2026-05-08 00:03 | 49.80686 | 14.65353 | 9028 ft | 277 kts | 288° |
| 2026-05-08 00:03 | 49.81378 | 14.62565 | 8648 ft | 277 kts | 288° |
| 2026-05-08 00:04 | 49.82064 | 14.59791 | 8323 ft | 275 kts | 288° |
| 2026-05-08 00:04 | 49.82745 | 14.57021 | 7986 ft | 273 kts | 288° |
| 2026-05-08 00:04 | 49.83405 | 14.54306 | 7660 ft | 271 kts | 288° |
| 2026-05-08 00:04 | 49.84069 | 14.51585 | 7336 ft | 269 kts | 288° |
| 2026-05-08 00:05 | 49.84731 | 14.48882 | 6919 ft | 268 kts | 289° |
| 2026-05-08 00:05 | 49.85415 | 14.46077 | 6720 ft | 286 kts | 290° |
| 2026-05-08 00:05 | 49.86108 | 14.43240 | 6427 ft | 277 kts | 290° |
| 2026-05-08 00:05 | 49.86779 | 14.40484 | 6093 ft | 270 kts | 290° |
| 2026-05-08 00:06 | 49.87435 | 14.37779 | 5743 ft | 265 kts | 290° |
| 2026-05-08 00:06 | 49.88084 | 14.35106 | 5405 ft | 264 kts | 290° |
| 2026-05-08 00:06 | 49.88729 | 14.32461 | 5184 ft | 260 kts | 290° |
| 2026-05-08 00:06 | 49.89375 | 14.29849 | 4978 ft | 259 kts | 290° |
| 2026-05-08 00:07 | 49.90009 | 14.27241 | 4777 ft | 258 kts | 290° |
| 2026-05-08 00:07 | 49.90635 | 14.24640 | 4573 ft | 256 kts | 290° |
| 2026-05-08 00:07 | 49.91251 | 14.22088 | 4418 ft | 253 kts | 290° |
| 2026-05-08 00:07 | 49.91860 | 14.19566 | 4887 ft | 258 kts | 290° |
| 2026-05-08 00:08 | 49.92500 | 14.16906 | 4468 ft | 260 kts | 290° |
| 2026-05-08 00:08 | 49.93121 | 14.14319 | 4066 ft | 258 kts | 290° |
| 2026-05-08 00:08 | 49.93734 | 14.11767 | 4024 ft | 240 kts | 290° |
| 2026-05-08 00:08 | 49.94308 | 14.09371 | 4110 ft | 235 kts | 290° |
| 2026-05-08 00:09 | 49.94878 | 14.06981 | 4117 ft | 237 kts | 290° |
| 2026-05-08 00:09 | 49.95177 | 14.04479 | 4113 ft | 236 kts | 268° |
| 2026-05-08 00:09 | 49.94869 | 14.01955 | 4128 ft | 239 kts | 258° |
| 2026-05-08 00:09 | 49.94544 | 13.99432 | 4126 ft | 238 kts | 265° |
| 2026-05-08 00:10 | 49.94781 | 13.96903 | 4127 ft | 239 kts | 292° |
| 2026-05-08 00:10 | 49.95685 | 13.94764 | 4141 ft | 240 kts | 315° |
| 2026-05-08 00:10 | 49.97059 | 13.93413 | 4147 ft | 237 kts | 337° |
| 2026-05-08 00:10 | 49.98662 | 13.92988 | 4139 ft | 232 kts | 360° |
| 2026-05-08 00:11 | 50.00216 | 13.93525 | 4127 ft | 229 kts | 21° |
| 2026-05-08 00:11 | 50.01535 | 13.94922 | 4044 ft | 235 kts | 44° |
| 2026-05-08 00:11 | 50.02503 | 13.97009 | 4012 ft | 240 kts | 58° |
| 2026-05-08 00:11 | 50.03240 | 13.99345 | 4019 ft | 241 kts | 63° |
| 2026-05-08 00:12 | 50.03894 | 14.01729 | 4002 ft | 234 kts | 63° |
| 2026-05-08 00:12 | 50.04546 | 14.03937 | 3864 ft | 213 kts | 63° |
| 2026-05-08 00:12 | 50.05140 | 14.05887 | 3579 ft | 189 kts | 62° |
| 2026-05-08 00:12 | 50.05667 | 14.07627 | 3333 ft | 166 kts | 60° |
| 2026-05-08 00:13 | 50.06124 | 14.09164 | 3124 ft | 147 kts | 61° |
| 2026-05-08 00:13 | 50.06533 | 14.10565 | 2917 ft | 140 kts | 62° |
| 2026-05-08 00:13 | 50.06929 | 14.11905 | 2749 ft | 132 kts | 60° |
| 2026-05-08 00:13 | 50.07330 | 14.13232 | 2612 ft | 143 kts | 62° |
| 2026-05-08 00:14 | 50.07759 | 14.14689 | 2444 ft | 151 kts | 61° |
| 2026-05-08 00:14 | 50.08193 | 14.16081 | 2196 ft | 138 kts | 60° |
| 2026-05-08 00:14 | 50.08607 | 14.17405 | 1941 ft | 140 kts | 58° |
| 2026-05-08 00:14 | 50.09037 | 14.18809 | 1743 ft | 146 kts | 63° |
| 2026-05-08 00:15 | 50.09466 | 14.20252 | 1524 ft | 147 kts | 64° |
| 2026-05-08 00:15 | 50.09907 | 14.21719 | 1367 ft | 147 kts | 65° |
| 2026-05-08 00:15 | 50.10317 | 14.23097 | 1198 ft | 132 kts | 64° |
| 2026-05-08 00:15 | 50.10620 | 14.24079 | 1183 ft | 82 kts | 66° |
| 2026-05-08 00:16 | 50.10779 | 14.24619 | 1172 ft | 21 kts | 68° |
| 2026-05-08 00:16 | 50.10810 | 14.24782 | 1170 ft | 19 kts | 77° |
| 2026-05-08 00:16 | 50.10817 | 14.24962 | 1171 ft | 16 kts | 92° |
| 2026-05-08 00:16 | 50.10808 | 14.25096 | 1174 ft | 7 kts | 98° |
| 2026-05-08 00:17 | 50.10804 | 14.25144 | 1171 ft | 5 kts | 101° |
| 2026-05-08 00:17 | 50.10790 | 14.25209 | 1171 ft | 8 kts | 116° |
| 2026-05-08 00:17 | 50.10763 | 14.25286 | 1173 ft | 8 kts | 118° |
| 2026-05-08 00:17 | 50.10739 | 14.25356 | 1172 ft | 6 kts | 118° |
| 2026-05-08 00:18 | 50.10722 | 14.25406 | 1176 ft | 5 kts | 119° |
| 2026-05-08 00:18 | 50.10699 | 14.25466 | 1179 ft | 8 kts | 120° |
| 2026-05-08 00:18 | 50.10681 | 14.25518 | 1179 ft | 5 kts | 118° |
| 2026-05-08 00:18 | 50.10661 | 14.25574 | 1177 ft | 7 kts | 120° |
| 2026-05-08 00:19 | 50.10641 | 14.25630 | 1181 ft | 5 kts | 120° |
| 2026-05-08 00:19 | 50.10628 | 14.25667 | 1183 ft | 3 kts | 119° |
| 2026-05-08 00:19 | 50.10621 | 14.25685 | 1184 ft | 0 kts | 118° |
| 2026-05-08 00:19 | 50.10621 | 14.25686 | 1184 ft | 1 kts | 118° |
| 2026-05-08 00:20 | 50.10606 | 14.25727 | 1185 ft | 5 kts | 120° |
| 2026-05-08 00:20 | 50.10596 | 14.25754 | 1186 ft | 1 kts | 119° |
| 2026-05-08 00:24 | 50.10583 | 14.25787 | 1186 ft | 8 kts | 121° |
| 2026-05-08 00:24 | 50.10532 | 14.25912 | 1186 ft | 19 kts | 120° |
| 2026-05-08 00:25 | 50.10528 | 14.26065 | 1184 ft | 15 kts | 79° |
| 2026-05-08 00:25 | 50.10544 | 14.26228 | 1181 ft | 11 kts | 96° |
| 2026-05-08 00:25 | 50.10525 | 14.26281 | 1177 ft | 1 kts | 106° |
| 2026-05-08 00:25 | 50.10516 | 14.26306 | 1179 ft | 8 kts | 131° |
| 2026-05-08 00:26 | 50.10451 | 14.26436 | 1176 ft | 16 kts | 124° |
| 2026-05-08 00:26 | 50.10435 | 14.26489 | 1175 ft | 4 kts | 75° |
| 2026-05-08 00:26 | 50.10452 | 14.26520 | 1177 ft | 4 kts | 35° |
| 2026-05-08 00:26 | 50.10458 | 14.26526 | 1178 ft | 0 kts | 35° |